createdAt,value
2023-03-02T00:01:02.970Z,101195.33
2023-03-02T00:06:06.956Z,101190.02
2023-03-02T00:11:10.606Z,101194.89
2023-03-02T00:16:13.492Z,101189.34
2023-03-02T00:21:19.454Z,101177.88
2023-03-02T00:26:22.301Z,101178.17
2023-03-02T00:31:25.214Z,101168.23
2023-03-02T00:36:28.963Z,101161.52
2023-03-02T00:41:31.835Z,101168.27
2023-03-02T00:46:35.099Z,101158.73
2023-03-02T00:51:38.675Z,101156.88
2023-03-02T00:56:42.517Z,101152.58
2023-03-02T01:01:45.485Z,101149.16
2023-03-02T01:06:48.323Z,101146.75
2023-03-02T01:11:51.363Z,101144.16
2023-03-02T01:16:54.345Z,101143.05
2023-03-02T01:21:57.270Z,101145.27
2023-03-02T01:27:00.781Z,101150.69
2023-03-02T01:32:04.443Z,101149.46
2023-03-02T01:37:07.436Z,101145.60
2023-03-02T01:42:10.315Z,101139.29
2023-03-02T01:47:19.599Z,101132.92
2023-03-02T01:52:24.109Z,101125.19
2023-03-02T01:57:32.919Z,101126.94
2023-03-02T02:02:36.955Z,101116.74
2023-03-02T02:07:41.101Z,101118.74
2023-03-02T02:12:43.949Z,101110.81
2023-03-02T02:17:46.744Z,101107.19
2023-03-02T02:23:01.524Z,101108.61
2023-03-02T02:28:11.161Z,101108.38
2023-03-02T02:33:19.755Z,101109.41
2023-03-02T02:38:24.380Z,101104.16
2023-03-02T02:43:31.421Z,101106.98
2023-03-02T02:48:34.913Z,101102.28
2023-03-02T02:54:00.000Z,101098.52
2023-03-02T02:59:08.020Z,101093.02
2023-03-02T03:04:18.085Z,101094.19
2023-03-02T03:09:24.133Z,101096.23
2023-03-02T03:14:30.801Z,101107.96
2023-03-02T03:19:33.801Z,101110.52
2023-03-02T03:24:36.661Z,101109.81
2023-03-02T03:29:42.196Z,101104.20
2023-03-02T03:34:45.662Z,101104.98
2023-03-02T03:39:48.594Z,101105.60
2023-03-02T03:44:51.482Z,101104.44
2023-03-02T03:49:54.232Z,101101.64
2023-03-02T03:55:01.712Z,101101.52
2023-03-02T04:00:10.634Z,101096.05
2023-03-02T04:05:14.425Z,101096.61
2023-03-02T04:10:17.247Z,101094.73
2023-03-02T04:15:20.248Z,101105.77
2023-03-02T04:20:24.449Z,101103.91
2023-03-02T04:25:29.287Z,101102.34
2023-03-02T04:30:35.401Z,101102.98
2023-03-02T04:35:38.718Z,101100.75
2023-03-02T04:40:41.559Z,101095.27
2023-03-02T04:45:44.391Z,101099.99
2023-03-02T04:50:47.671Z,101103.36
2023-03-02T04:55:51.220Z,101103.61
2023-03-02T05:01:02.184Z,101097.70
2023-03-02T05:06:05.839Z,101097.95
2023-03-02T05:11:22.609Z,101094.08
2023-03-02T05:16:29.318Z,101093.69
2023-03-02T05:21:32.506Z,101098.44
2023-03-02T05:26:35.630Z,101102.50
2023-03-02T05:31:42.153Z,101100.35
2023-03-02T05:36:46.525Z,101100.20
2023-03-02T05:41:49.797Z,101102.64
2023-03-02T05:46:52.624Z,101106.68
2023-03-02T05:51:57.428Z,101107.92
2023-03-02T05:57:01.791Z,101106.80
2023-03-02T06:02:04.815Z,101108.23
2023-03-02T06:07:07.728Z,101110.77
2023-03-02T06:12:10.671Z,101116.41
2023-03-02T06:17:13.581Z,101113.89
2023-03-02T06:22:16.518Z,101110.48
2023-03-02T06:27:19.327Z,101114.22
2023-03-02T06:32:22.299Z,101113.38
2023-03-02T06:37:25.869Z,101114.79
2023-03-02T06:42:30.898Z,101108.69
2023-03-02T06:47:33.997Z,101109.41
2023-03-02T06:52:40.931Z,101105.10
2023-03-02T06:57:46.712Z,101104.95
2023-03-02T07:02:56.198Z,101102.44
2023-03-02T07:08:04.461Z,101101.75
2023-03-02T07:13:22.148Z,101099.64
2023-03-02T07:18:25.652Z,101100.06
2023-03-02T07:23:35.356Z,101098.81
2023-03-02T07:28:43.546Z,101104.20
2023-03-02T07:34:11.685Z,101101.09
2023-03-02T07:39:14.503Z,101099.29
2023-03-02T07:44:17.970Z,101103.47
2023-03-02T07:49:25.278Z,101112.12
2023-03-02T07:54:31.298Z,101113.15
2023-03-02T07:59:37.083Z,101109.68
2023-03-02T08:04:45.246Z,101112.67
2023-03-02T08:09:53.049Z,101121.26
2023-03-02T08:14:57.019Z,101115.70
2023-03-02T08:20:15.885Z,101115.82
2023-03-02T08:25:20.595Z,101120.30
2023-03-02T08:30:26.024Z,101117.40
2023-03-02T08:35:29.013Z,101120.39
2023-03-02T08:40:32.633Z,101125.52
2023-03-02T08:45:35.687Z,101122.74
2023-03-02T08:50:38.642Z,101118.20
2023-03-02T08:55:41.687Z,101109.01
2023-03-02T09:00:47.492Z,101106.83
2023-03-02T09:05:51.112Z,101110.34
2023-03-02T09:10:53.994Z,101105.66
2023-03-02T09:15:57.074Z,101100.77
2023-03-02T09:21:00.208Z,101104.04
2023-03-02T09:26:04.310Z,101098.97
2023-03-02T09:31:08.836Z,101087.52
2023-03-02T09:36:16.177Z,101084.88
2023-03-02T09:41:19.420Z,101085.71
2023-03-02T09:46:41.790Z,101081.56
2023-03-02T09:51:48.729Z,101078.52
2023-03-02T09:56:56.063Z,101070.48
2023-03-02T10:02:37.363Z,101068.01
2023-03-02T10:07:40.215Z,101062.13
2023-03-02T10:13:05.872Z,101065.67
2023-03-02T10:18:12.411Z,101056.83
2023-03-02T10:23:27.604Z,101051.89
2023-03-02T10:28:38.185Z,101055.74
2023-03-02T10:33:43.157Z,101049.80
2023-03-02T10:38:46.712Z,101046.40
2023-03-02T10:43:54.221Z,101044.54
2023-03-02T10:49:01.430Z,101040.39
2023-03-02T10:54:14.079Z,101038.89
2023-03-02T10:59:28.794Z,101025.29
2023-03-02T11:04:32.164Z,101024.58
2023-03-02T11:09:37.507Z,101018.23
2023-03-02T11:14:47.202Z,101015.50
2023-03-02T11:19:52.921Z,101012.48
2023-03-02T11:24:58.509Z,101014.94
2023-03-02T11:30:19.266Z,101004.54
2023-03-02T11:35:45.579Z,100997.85
2023-03-02T11:41:00.132Z,100989.91
2023-03-02T11:46:13.992Z,100988.90
2023-03-02T11:51:25.067Z,100985.66
2023-03-02T11:56:33.987Z,100988.76
2023-03-02T12:01:39.090Z,100989.27
2023-03-02T12:06:44.218Z,100979.38
2023-03-02T12:11:58.511Z,100972.30
2023-03-02T12:17:22.289Z,100964.02
2023-03-02T12:22:29.145Z,100976.16
2023-03-02T12:27:39.710Z,100969.90
2023-03-02T12:32:58.382Z,100963.48
2023-03-02T12:38:19.948Z,100955.16
2023-03-02T12:43:30.816Z,100940.63
2023-03-02T12:48:45.598Z,100932.67
2023-03-02T12:53:50.641Z,100937.35
2023-03-02T12:58:54.956Z,100929.70
2023-03-02T13:03:58.461Z,100929.20
2023-03-02T13:09:01.386Z,100923.15
2023-03-02T13:14:22.790Z,100924.88
2023-03-02T13:19:27.435Z,100909.63
2023-03-02T13:24:44.352Z,100908.59
2023-03-02T13:29:48.505Z,100897.49
2023-03-02T13:34:57.760Z,100887.10
2023-03-02T13:40:05.001Z,100882.08
2023-03-02T13:45:34.477Z,100865.43
2023-03-02T13:50:37.601Z,100863.17
2023-03-02T13:55:40.472Z,100852.23
2023-03-02T14:00:43.974Z,100849.13
2023-03-02T14:05:46.832Z,100847.06
2023-03-02T14:10:52.498Z,100843.09
2023-03-02T14:15:55.459Z,100832.34
2023-03-02T14:20:58.895Z,100819.47
2023-03-02T14:26:03.474Z,100835.95
2023-03-02T14:31:06.658Z,100829.40
2023-03-02T14:36:21.174Z,100815.55
2023-03-02T14:41:25.222Z,100817.11
2023-03-02T14:46:28.406Z,100821.30
2023-03-02T14:51:36.158Z,100814.20
2023-03-02T14:56:39.530Z,100810.89
2023-03-02T15:01:44.860Z,100803.61
2023-03-02T15:06:48.005Z,100798.60
2023-03-02T15:11:51.274Z,100795.81
2023-03-02T15:16:55.490Z,100792.49
2023-03-02T15:22:00.593Z,100789.33
2023-03-02T15:27:03.484Z,100782.73
2023-03-02T15:32:06.341Z,100771.64
2023-03-02T15:37:12.861Z,100765.52
2023-03-02T15:42:15.905Z,100761.81
2023-03-02T15:47:18.719Z,100756.39
2023-03-02T15:52:21.990Z,100754.41
2023-03-02T15:57:26.018Z,100754.52
2023-03-02T16:02:28.805Z,100753.77
2023-03-02T16:07:32.000Z,100748.98
2023-03-02T16:12:34.764Z,100746.80
2023-03-02T16:17:37.637Z,100745.09
2023-03-02T16:22:40.520Z,100746.27
2023-03-02T16:27:47.570Z,100745.24
2023-03-02T16:32:50.342Z,100749.86
2023-03-02T16:37:53.720Z,100752.75
2023-03-02T16:42:56.728Z,100755.66
2023-03-02T16:47:59.765Z,100756.49
2023-03-02T16:53:03.057Z,100752.06
2023-03-02T16:58:05.891Z,100753.88
2023-03-02T17:03:09.102Z,100753.63
2023-03-02T17:08:14.096Z,100753.46
2023-03-02T17:13:17.403Z,100757.39
2023-03-02T17:18:20.353Z,100758.03
2023-03-02T17:23:24.053Z,100760.05
2023-03-02T17:28:29.332Z,100759.02
2023-03-02T17:33:34.054Z,100756.52
2023-03-02T17:38:36.859Z,100753.05
2023-03-02T17:43:41.785Z,100752.48
2023-03-02T17:48:44.639Z,100745.80
2023-03-02T17:53:50.702Z,100741.35
2023-03-02T17:59:01.194Z,100738.48
2023-03-02T18:04:05.039Z,100740.30
2023-03-02T18:09:08.099Z,100733.56
2023-03-02T18:14:16.983Z,100728.00
2023-03-02T18:19:20.561Z,100735.92
2023-03-02T18:24:23.687Z,100738.52
2023-03-02T18:29:26.972Z,100736.16
2023-03-02T18:34:29.787Z,100733.33
2023-03-02T18:39:33.468Z,100731.48
2023-03-02T18:44:36.678Z,100728.74
2023-03-02T18:49:42.842Z,100730.48
2023-03-02T18:54:47.150Z,100734.48
2023-03-02T18:59:50.297Z,100736.36
2023-03-02T19:04:53.636Z,100739.27
2023-03-02T19:09:56.709Z,100736.56
2023-03-02T19:14:59.669Z,100735.53
2023-03-02T19:20:02.697Z,100730.05
2023-03-02T19:25:06.620Z,100722.52
2023-03-02T19:30:14.294Z,100724.20
2023-03-02T19:35:20.255Z,100721.32
2023-03-02T19:40:25.549Z,100720.61
2023-03-02T19:45:32.524Z,100713.15
2023-03-02T19:50:35.545Z,100710.67
2023-03-02T19:55:39.822Z,100714.31
2023-03-02T20:00:43.780Z,100712.98
2023-03-02T20:05:46.627Z,100713.66
2023-03-02T20:10:50.215Z,100710.55
2023-03-02T20:15:53.990Z,100703.27
2023-03-02T20:20:56.919Z,100710.39
2023-03-02T20:25:59.919Z,100699.66
2023-03-02T20:31:08.984Z,100688.04
2023-03-02T20:36:14.104Z,100688.52
2023-03-02T20:41:18.011Z,100689.64
2023-03-02T20:46:30.166Z,100691.03
2023-03-02T20:51:33.040Z,100684.04
2023-03-02T20:56:35.819Z,100676.08
2023-03-02T21:01:38.647Z,100674.98
2023-03-02T21:06:41.862Z,100677.99
2023-03-02T21:11:46.803Z,100670.89
2023-03-02T21:16:49.768Z,100669.25
2023-03-02T21:21:52.843Z,100673.89
2023-03-02T21:26:55.675Z,100678.89
2023-03-02T21:31:58.677Z,100668.86
2023-03-02T21:37:01.473Z,100660.02
2023-03-02T21:42:04.364Z,100651.30
2023-03-02T21:47:07.373Z,100640.30
2023-03-02T21:52:10.226Z,100640.70
2023-03-02T21:57:13.046Z,100641.89
2023-03-02T22:02:15.965Z,100652.86
2023-03-02T22:07:19.118Z,100651.58
2023-03-02T22:12:23.190Z,100644.48
2023-03-02T22:17:26.044Z,100645.04
2023-03-02T22:22:30.649Z,100636.85
2023-03-02T22:27:35.004Z,100631.41
2023-03-02T22:32:38.619Z,100624.91
2023-03-02T22:37:41.386Z,100613.02
2023-03-02T22:42:44.166Z,100614.41
2023-03-02T22:47:51.399Z,100611.65
2023-03-02T22:52:56.346Z,100607.75
2023-03-02T22:58:00.267Z,100600.25
2023-03-02T23:03:16.041Z,100593.27
2023-03-02T23:08:30.812Z,100597.45
2023-03-02T23:13:40.242Z,100584.95
2023-03-02T23:18:43.864Z,100583.73
2023-03-02T23:23:47.543Z,100578.71
2023-03-02T23:28:51.410Z,100560.52
2023-03-02T23:33:54.541Z,100557.80
2023-03-02T23:38:58.703Z,100554.05
2023-03-02T23:44:01.555Z,100545.20
2023-03-02T23:49:04.887Z,100533.90
2023-03-02T23:54:08.013Z,100520.50
2023-03-02T23:59:10.766Z,100518.89
